aviador You're here:

CYYL Decoded Metar

LYNN LAKE in MB, CANADA
Report Time2018-02-25 23:00:00
UTC Time2018-02-25 23:33:50
Flight Rules vfr VFR
Wind090° at 05 kt
W.Decomp.*RWY 08: 5.0 kt HW 0.2 kt RCW
RWY 17: 0.2 kt HW 5 kt LCW
W.Rank090° ranks 14
Current wind is below 090° avg. (7.0)
Visibility9999 m
Phenomena:N/A
Clouds:N/A
Expected CloudBase > 2,000 ft AGL from Temp-Dew spread
CeilingNone
Temp-11°C (ISA -24)
Dew Point-16°C (67% RH)
AAT-16.2°C
QNH999 hPa
Density Alt-1,273 ft
Elevation1,171 ft
Report Wrong Elevation
Raw Report
CYYL 252300Z AUTO 09005KT 9SM CLR M11/M16 A2949 RMK SLP024=

Extra information for CYYL:More info

Metar Taf Metar & Taf Last 4 Metars F.Rules Stats Wind Profile Meteogram Temp Stats Airport Information Weather charts Add Link Nearby VenuesMetar ALERT Operation Metar Decoded Social comments